Time,TemperatureF,DewpointF,PressureIn,WindDirection,WindDirectionDegrees,WindSpeedMPH,WindSpeedGustMPH,Humidity,HourlyPrecipIn,Conditions,Clouds,dailyrainin,SolarRadiationWatts/m^2,SoftwareType,DateUTC
2013-06-28 00:01:00,68.1,66.6,29.86,NNW,338,0.0,0.0,95,0.00,,,0.00,0,Wunderground v.1.15,2013-06-28 04:01:00,
2013-06-28 00:02:00,68.1,66.6,29.86,NNW,338,0.0,0.0,95,0.00,,,0.00,0,Wunderground v.1.15,2013-06-28 04:02:00,
2013-06-28 00:06:00,68.0,66.5,29.86,NNW,338,0.0,0.0,95,0.00,,,0.00,0,Wunderground v.1.15,2013-06-28 04:06:00,
2013-06-28 00:12:00,67.9,66.4,29.86,NNW,338,0.0,0.0,95,0.00,,,0.00,0,Wunderground v.1.15,2013-06-28 04:12:00,
2013-06-28 00:17:00,67.9,66.7,29.86,NNW,338,0.0,0.0,96,0.00,,,0.00,0,Wunderground v.1.15,2013-06-28 04:17:00,
2013-06-28 00:23:00,67.8,66.6,29.86,NNW,338,0.0,0.0,96,0.00,,,0.00,0,Wunderground v.1.15,2013-06-28 04:23:00,
2013-06-28 00:28:00,67.7,66.5,29.86,NNW,338,0.0,0.0,96,0.00,,,0.00,0,Wunderground v.1.15,2013-06-28 04:28:00,
2013-06-28 00:34:00,67.6,66.4,29.86,NNW,338,0.0,0.0,96,0.00,,,0.00,0,Wunderground v.1.15,2013-06-28 04:34:00,
2013-06-28 00:39:00,67.5,66.3,29.86,NNW,338,0.0,0.0,96,0.00,,,0.00,0,Wunderground v.1.15,2013-06-28 04:39:00,
2013-06-28 00:45:00,67.5,66.3,29.86,NNW,338,0.0,0.0,96,0.00,,,0.00,0,Wunderground v.1.15,2013-06-28 04:45:00,
2013-06-28 00:50:00,67.4,66.2,29.85,NNW,338,0.0,0.0,96,0.00,,,0.00,0,Wunderground v.1.15,2013-06-28 04:50:00,
2013-06-28 00:56:00,67.3,66.1,29.85,NNW,338,0.0,0.0,96,0.00,,,0.00,0,Wunderground v.1.15,2013-06-28 04:56:00,
2013-06-28 01:01:00,67.1,65.9,29.85,NNW,338,0.0,0.0,96,0.00,,,0.00,0,Wunderground v.1.15,2013-06-28 05:01:00,
2013-06-28 01:06:00,67.0,65.8,29.85,NNW,338,0.0,0.0,96,0.00,,,0.00,0,Wunderground v.1.15,2013-06-28 05:06:00,
2013-06-28 01:12:00,66.9,65.7,29.86,NNW,338,0.0,0.0,96,0.00,,,0.00,0,Wunderground v.1.15,2013-06-28 05:12:00,
2013-06-28 01:17:00,66.9,65.7,29.85,NNW,338,0.0,0.0,96,0.00,,,0.00,0,Wunderground v.1.15,2013-06-28 05:17:00,
2013-06-28 01:23:00,66.9,65.7,29.85,NNW,338,0.0,0.0,96,0.00,,,0.00,0,Wunderground v.1.15,2013-06-28 05:23:00,
2013-06-28 01:28:00,66.8,65.6,29.85,NNW,338,0.0,0.0,96,0.00,,,0.00,0,Wunderground v.1.15,2013-06-28 05:28:00,
2013-06-28 01:34:00,66.7,65.5,29.84,NNW,338,0.0,0.0,96,0.00,,,0.00,0,Wunderground v.1.15,2013-06-28 05:34:00,
2013-06-28 01:40:00,66.7,65.5,29.84,NNW,338,0.0,0.0,96,0.00,,,0.00,0,Wunderground v.1.15,2013-06-28 05:40:00,
2013-06-28 01:45:00,66.7,65.5,29.84,NNW,338,0.0,0.0,96,0.00,,,0.00,0,Wunderground v.1.15,2013-06-28 05:45:00,
2013-06-28 01:50:00,66.5,65.3,29.84,NNW,338,0.0,0.0,96,0.00,,,0.00,0,Wunderground v.1.15,2013-06-28 05:50:00,
2013-06-28 01:56:00,66.3,65.1,29.84,NNW,338,0.0,0.0,96,0.00,,,0.00,0,Wunderground v.1.15,2013-06-28 05:56:00,
2013-06-28 02:01:00,66.2,65.0,29.84,NNW,338,0.0,0.0,96,0.00,,,0.00,0,Wunderground v.1.15,2013-06-28 06:01:00,
2013-06-28 02:06:00,66.2,65.0,29.84,NNW,338,0.0,0.0,96,0.00,,,0.00,0,Wunderground v.1.15,2013-06-28 06:06:00,
2013-06-28 02:11:00,66.1,64.9,29.84,NNW,338,0.0,0.0,96,0.00,,,0.00,0,Wunderground v.1.15,2013-06-28 06:11:00,
2013-06-28 02:16:00,66.0,64.8,29.83,NNW,338,0.0,0.0,96,0.00,,,0.00,0,Wunderground v.1.15,2013-06-28 06:16:00,
2013-06-28 02:21:00,65.9,65.0,29.83,NNW,338,0.0,0.0,97,0.00,,,0.00,0,Wunderground v.1.15,2013-06-28 06:21:00,
2013-06-28 02:26:00,65.8,64.9,29.84,NNW,338,0.0,0.0,97,0.00,,,0.00,0,Wunderground v.1.15,2013-06-28 06:26:00,
2013-06-28 02:31:00,65.7,64.8,29.83,NNW,338,0.0,0.0,97,0.00,,,0.00,0,Wunderground v.1.15,2013-06-28 06:31:00,
2013-06-28 02:36:00,65.5,64.3,29.83,NNW,338,0.0,0.0,96,0.00,,,0.00,0,Wunderground v.1.15,2013-06-28 06:36:00,
2013-06-28 02:41:00,65.4,64.2,29.83,NNW,338,0.0,0.0,96,0.00,,,0.00,0,Wunderground v.1.15,2013-06-28 06:41:00,
2013-06-28 02:47:00,65.4,64.2,29.84,NNW,338,0.0,0.0,96,0.00,,,0.00,0,Wunderground v.1.15,2013-06-28 06:47:00,
2013-06-28 02:52:00,65.3,64.4,29.84,NNW,338,0.0,0.0,97,0.00,,,0.00,0,Wunderground v.1.15,2013-06-28 06:52:00,
2013-06-28 02:57:00,65.2,64.3,29.83,NNW,338,0.0,0.0,97,0.00,,,0.00,0,Wunderground v.1.15,2013-06-28 06:57:00,
2013-06-28 03:02:00,65.0,63.8,29.83,NNW,338,0.0,0.0,96,0.00,,,0.00,0,Wunderground v.1.15,2013-06-28 07:02:00,
2013-06-28 03:07:00,65.0,63.8,29.83,NNW,338,0.0,0.0,96,0.00,,,0.00,0,Wunderground v.1.15,2013-06-28 07:07:00,
2013-06-28 03:12:00,64.9,63.7,29.83,NNW,338,0.0,0.0,96,0.00,,,0.00,0,Wunderground v.1.15,2013-06-28 07:12:00,
2013-06-28 03:17:00,64.8,63.6,29.84,NNW,338,0.0,0.0,96,0.00,,,0.00,0,Wunderground v.1.15,2013-06-28 07:17:00,
2013-06-28 03:22:00,64.7,63.5,29.83,NNW,338,0.0,0.0,96,0.00,,,0.00,0,Wunderground v.1.15,2013-06-28 07:22:00,
2013-06-28 03:27:00,64.7,63.8,29.83,NNW,338,0.0,0.0,97,0.00,,,0.00,0,Wunderground v.1.15,2013-06-28 07:27:00,
2013-06-28 03:32:00,64.7,63.8,29.84,NNW,338,0.0,0.0,97,0.00,,,0.00,0,Wunderground v.1.15,2013-06-28 07:32:00,
2013-06-28 03:37:00,64.7,63.8,29.83,NNW,338,0.0,0.0,97,0.00,,,0.00,0,Wunderground v.1.15,2013-06-28 07:37:00,
2013-06-28 03:42:00,64.7,63.8,29.84,NNW,338,0.0,0.0,97,0.00,,,0.00,0,Wunderground v.1.15,2013-06-28 07:42:00,
2013-06-28 03:47:00,64.8,63.9,29.83,NNW,338,0.0,0.0,97,0.00,,,0.00,0,Wunderground v.1.15,2013-06-28 07:47:00,
2013-06-28 03:52:00,64.9,64.0,29.84,NNW,338,0.0,0.0,97,0.00,,,0.00,0,Wunderground v.1.15,2013-06-28 07:52:00,
2013-06-28 03:57:00,64.9,64.0,29.84,NNW,338,0.0,0.0,97,0.00,,,0.00,0,Wunderground v.1.15,2013-06-28 07:57:00,
2013-06-28 04:02:00,65.0,64.1,29.83,NNW,338,0.0,0.0,97,0.00,,,0.01,0,Wunderground v.1.15,2013-06-28 08:02:00,
2013-06-28 04:07:00,65.0,64.1,29.84,NNW,338,0.0,0.0,97,0.00,,,0.01,0,Wunderground v.1.15,2013-06-28 08:07:00,
2013-06-28 04:12:00,65.1,64.2,29.84,NNW,338,0.0,0.0,97,0.00,,,0.01,0,Wunderground v.1.15,2013-06-28 08:12:00,
2013-06-28 04:17:00,65.2,64.3,29.83,NNW,338,0.0,0.0,97,0.00,,,0.01,0,Wunderground v.1.15,2013-06-28 08:17:00,
2013-06-28 04:22:00,65.3,64.4,29.83,NNW,338,0.0,0.0,97,0.00,,,0.01,0,Wunderground v.1.15,2013-06-28 08:22:00,
2013-06-28 04:27:00,65.4,64.5,29.83,NNW,338,0.0,0.0,97,0.00,,,0.01,0,Wunderground v.1.15,2013-06-28 08:27:00,
2013-06-28 04:32:00,65.4,64.8,29.83,NNW,338,0.0,0.0,98,0.00,,,0.01,0,Wunderground v.1.15,2013-06-28 08:32:00,
2013-06-28 04:37:00,65.4,64.8,29.83,NNW,338,0.0,0.0,98,0.00,,,0.01,0,Wunderground v.1.15,2013-06-28 08:37:00,
2013-06-28 04:42:00,65.4,64.8,29.83,NNW,338,0.0,0.0,98,0.00,,,0.01,0,Wunderground v.1.15,2013-06-28 08:42:00,
2013-06-28 04:47:00,65.4,64.8,29.83,NNW,338,0.0,0.0,98,0.00,,,0.01,0,Wunderground v.1.15,2013-06-28 08:47:00,
2013-06-28 04:52:00,65.4,64.8,29.83,NNW,338,0.0,0.0,98,0.00,,,0.01,0,Wunderground v.1.15,2013-06-28 08:52:00,
2013-06-28 04:57:00,65.4,64.8,29.83,NNW,338,0.0,0.0,98,0.00,,,0.01,0,Wunderground v.1.15,2013-06-28 08:57:00,
2013-06-28 05:02:00,65.4,64.8,29.83,NNW,338,0.0,0.0,98,0.00,,,0.01,0,Wunderground v.1.15,2013-06-28 09:02:00,
2013-06-28 05:07:00,65.4,64.8,29.83,NNW,338,0.0,0.0,98,0.00,,,0.01,0,Wunderground v.1.15,2013-06-28 09:07:00,
2013-06-28 05:12:00,65.4,64.8,29.83,NNW,338,0.0,0.0,98,0.00,,,0.01,0,Wunderground v.1.15,2013-06-28 09:12:00,
2013-06-28 05:18:00,65.4,64.8,29.84,NNW,338,0.0,0.0,98,0.00,,,0.01,0,Wunderground v.1.15,2013-06-28 09:18:00,
2013-06-28 05:23:00,65.3,64.7,29.83,NNW,338,0.0,0.0,98,0.00,,,0.01,0,Wunderground v.1.15,2013-06-28 09:23:00,
2013-06-28 05:28:00,65.3,64.7,29.83,NNW,338,0.0,0.0,98,0.00,,,0.01,0,Wunderground v.1.15,2013-06-28 09:28:00,
2013-06-28 05:33:00,65.3,64.7,29.83,NNW,338,0.0,0.0,98,0.00,,,0.01,0,Wunderground v.1.15,2013-06-28 09:33:00,
2013-06-28 05:38:00,65.2,64.6,29.83,NNW,338,0.0,0.0,98,0.00,,,0.01,0,Wunderground v.1.15,2013-06-28 09:38:00,
2013-06-28 05:43:00,65.3,64.7,29.82,NNW,338,0.0,0.0,98,0.00,,,0.01,0,Wunderground v.1.15,2013-06-28 09:43:00,
2013-06-28 05:48:00,65.3,64.7,29.82,NNW,338,0.0,0.0,98,0.00,,,0.01,0,Wunderground v.1.15,2013-06-28 09:48:00,
2013-06-28 05:53:00,65.3,64.7,29.83,NNW,338,0.0,0.0,98,0.00,,,0.01,0,Wunderground v.1.15,2013-06-28 09:53:00,
2013-06-28 05:58:00,65.3,64.7,29.83,NNW,338,0.0,0.0,98,0.00,,,0.01,0,Wunderground v.1.15,2013-06-28 09:58:00,
2013-06-28 06:03:00,65.3,64.7,29.83,NNW,338,0.0,0.0,98,0.00,,,0.01,0,Wunderground v.1.15,2013-06-28 10:03:00,
2013-06-28 06:08:00,65.4,64.8,29.83,NNW,338,0.0,0.0,98,0.00,,,0.01,0,Wunderground v.1.15,2013-06-28 10:08:00,
2013-06-28 06:13:00,65.4,64.8,29.83,NNW,338,0.0,0.0,98,0.00,,,0.01,0,Wunderground v.1.15,2013-06-28 10:13:00,
2013-06-28 06:18:00,65.4,64.8,29.83,NNW,338,0.0,0.0,98,0.00,,,0.01,0,Wunderground v.1.15,2013-06-28 10:18:00,
2013-06-28 06:23:00,65.4,64.8,29.83,NNW,338,0.0,0.0,98,0.00,,,0.01,0,Wunderground v.1.15,2013-06-28 10:23:00,
2013-06-28 06:28:00,65.5,64.9,29.83,NNW,338,0.0,0.0,98,0.00,,,0.01,0,Wunderground v.1.15,2013-06-28 10:28:00,
2013-06-28 06:33:00,65.5,64.9,29.83,NNW,338,0.0,0.0,98,0.00,,,0.01,5,Wunderground v.1.15,2013-06-28 10:33:00,
2013-06-28 06:38:00,65.5,64.9,29.83,NNW,338,0.0,0.0,98,0.00,,,0.01,9,Wunderground v.1.15,2013-06-28 10:38:00,
2013-06-28 06:43:00,65.6,65.0,29.83,NNW,338,0.0,0.0,98,0.00,,,0.01,11,Wunderground v.1.15,2013-06-28 10:43:00,
2013-06-28 06:48:00,65.6,65.0,29.84,NNW,338,0.0,0.0,98,0.00,,,0.01,14,Wunderground v.1.15,2013-06-28 10:48:00,
2013-06-28 06:53:00,65.6,65.0,29.83,NNW,338,0.0,0.0,98,0.00,,,0.01,19,Wunderground v.1.15,2013-06-28 10:53:00,
2013-06-28 06:58:00,65.6,65.0,29.84,NNW,338,0.0,0.0,98,0.00,,,0.01,25,Wunderground v.1.15,2013-06-28 10:58:00,
2013-06-28 07:03:00,65.7,65.1,29.84,NNW,338,0.0,0.0,98,0.00,,,0.01,28,Wunderground v.1.15,2013-06-28 11:03:00,
2013-06-28 07:09:00,65.6,65.0,29.83,NNW,338,0.0,1.0,98,0.00,,,0.01,37,Wunderground v.1.15,2013-06-28 11:09:00,
2013-06-28 07:14:00,65.6,65.0,29.83,NNW,338,0.0,0.0,98,0.00,,,0.01,46,Wunderground v.1.15,2013-06-28 11:14:00,
2013-06-28 07:19:00,65.6,65.0,29.83,NNW,338,0.0,0.0,98,0.00,,,0.01,46,Wunderground v.1.15,2013-06-28 11:19:00,
2013-06-28 07:24:00,65.5,64.9,29.83,NNW,339,0.0,0.0,98,0.00,,,0.01,49,Wunderground v.1.15,2013-06-28 11:24:00,
2013-06-28 07:29:00,65.5,64.9,29.84,NNW,339,0.0,0.0,98,0.00,,,0.01,63,Wunderground v.1.15,2013-06-28 11:29:00,
2013-06-28 07:34:00,65.6,65.0,29.84,NNW,339,0.0,0.0,98,0.00,,,0.01,62,Wunderground v.1.15,2013-06-28 11:34:00,
2013-06-28 07:39:00,65.6,65.0,29.84,NNW,339,0.0,0.0,98,0.00,,,0.01,70,Wunderground v.1.15,2013-06-28 11:39:00,
2013-06-28 07:44:00,65.7,65.1,29.84,NNW,339,0.0,0.0,98,0.00,,,0.01,88,Wunderground v.1.15,2013-06-28 11:44:00,
2013-06-28 07:49:00,65.8,65.2,29.84,NNW,339,0.0,0.0,98,0.00,,,0.01,79,Wunderground v.1.15,2013-06-28 11:49:00,
2013-06-28 07:54:00,65.9,65.3,29.84,NNW,339,0.0,0.0,98,0.00,,,0.01,90,Wunderground v.1.15,2013-06-28 11:54:00,
2013-06-28 07:59:00,66.2,65.6,29.84,NNW,339,0.0,0.0,98,0.00,,,0.01,113,Wunderground v.1.15,2013-06-28 11:59:00,
2013-06-28 08:04:00,66.3,65.7,29.84,NNW,339,0.0,0.0,98,0.00,,,0.01,104,Wunderground v.1.15,2013-06-28 12:04:00,
2013-06-28 08:09:00,66.4,65.8,29.84,NNW,338,0.0,1.0,98,0.00,,,0.01,98,Wunderground v.1.15,2013-06-28 12:09:00,
2013-06-28 08:14:00,66.3,65.7,29.84,NNW,339,0.0,0.0,98,0.00,,,0.01,111,Wunderground v.1.15,2013-06-28 12:14:00,
2013-06-28 08:19:00,66.3,65.7,29.84,North,360,0.0,1.0,98,0.00,,,0.01,120,Wunderground v.1.15,2013-06-28 12:19:00,
2013-06-28 08:24:00,66.3,65.7,29.84,NNW,341,0.0,2.0,98,0.00,,,0.01,107,Wunderground v.1.15,2013-06-28 12:24:00,
2013-06-28 08:29:00,66.4,65.8,29.85,NNW,341,0.0,2.0,98,0.00,,,0.01,125,Wunderground v.1.15,2013-06-28 12:29:00,
2013-06-28 08:34:00,66.5,65.9,29.85,NNW,341,0.0,3.0,98,0.00,,,0.01,127,Wunderground v.1.15,2013-06-28 12:34:00,
2013-06-28 08:39:00,66.7,66.1,29.84,NNW,341,0.0,3.0,98,0.00,,,0.01,135,Wunderground v.1.15,2013-06-28 12:39:00,
2013-06-28 08:44:00,67.0,66.4,29.84,NNW,341,0.0,0.0,98,0.00,,,0.01,142,Wunderground v.1.15,2013-06-28 12:44:00,
2013-06-28 08:49:00,67.1,66.5,29.84,NNW,341,0.0,1.0,98,0.00,,,0.01,160,Wunderground v.1.15,2013-06-28 12:49:00,
2013-06-28 08:54:00,67.2,66.6,29.84,NNW,341,0.0,0.0,98,0.00,,,0.01,137,Wunderground v.1.15,2013-06-28 12:54:00,
2013-06-28 08:59:00,67.2,66.9,29.85,NNW,340,0.0,3.0,99,0.00,,,0.01,183,Wunderground v.1.15,2013-06-28 12:59:00,
2013-06-28 09:04:00,67.4,67.1,29.84,NNW,340,0.0,2.0,99,0.00,,,0.01,171,Wunderground v.1.15,2013-06-28 13:04:00,
2013-06-28 09:09:00,67.5,67.2,29.84,NNW,340,0.0,2.0,99,0.00,,,0.01,202,Wunderground v.1.15,2013-06-28 13:09:00,
2013-06-28 09:14:00,67.7,67.1,29.84,NNW,340,0.0,1.0,98,0.00,,,0.01,195,Wunderground v.1.15,2013-06-28 13:14:00,
2013-06-28 09:19:00,67.9,67.6,29.84,NNW,339,0.0,1.0,99,0.00,,,0.01,225,Wunderground v.1.15,2013-06-28 13:19:00,
2013-06-28 09:24:00,68.1,67.8,29.84,NNW,340,0.0,0.0,99,0.00,,,0.01,257,Wunderground v.1.15,2013-06-28 13:24:00,
2013-06-28 09:29:00,68.4,68.1,29.83,NNW,340,0.0,1.0,99,0.00,,,0.01,251,Wunderground v.1.15,2013-06-28 13:29:00,
2013-06-28 09:34:00,68.8,68.5,29.83,NNW,340,0.0,0.0,99,0.00,,,0.01,246,Wunderground v.1.15,2013-06-28 13:34:00,
2013-06-28 09:39:00,69.5,69.2,29.82,NNW,339,0.0,0.0,99,0.00,,,0.01,211,Wunderground v.1.15,2013-06-28 13:39:00,
2013-06-28 09:44:00,69.9,69.6,29.82,NNW,340,0.0,2.0,99,0.00,,,0.01,311,Wunderground v.1.15,2013-06-28 13:44:00,
2013-06-28 09:49:00,70.4,70.1,29.83,NNW,342,0.0,2.0,99,0.00,,,0.01,476,Wunderground v.1.15,2013-06-28 13:49:00,
2013-06-28 09:54:00,70.7,70.4,29.83,North,360,0.0,3.0,99,0.00,,,0.01,445,Wunderground v.1.15,2013-06-28 13:54:00,
2013-06-28 09:59:00,70.9,70.6,29.82,North,5,0.0,3.0,99,0.00,,,0.01,485,Wunderground v.1.15,2013-06-28 13:59:00,
2013-06-28 10:04:00,71.5,71.2,29.82,North,5,0.0,1.0,99,0.00,,,0.01,443,Wunderground v.1.15,2013-06-28 14:04:00,
2013-06-28 10:09:00,72.0,71.7,29.82,North,5,0.0,1.0,99,0.00,,,0.01,506,Wunderground v.1.15,2013-06-28 14:09:00,
2013-06-28 10:14:00,72.5,72.2,29.82,North,5,0.0,1.0,99,0.00,,,0.01,557,Wunderground v.1.15,2013-06-28 14:14:00,
2013-06-28 10:19:00,72.8,72.5,29.81,North,5,0.0,1.0,99,0.00,,,0.01,621,Wunderground v.1.15,2013-06-28 14:19:00,
2013-06-28 10:24:00,73.5,73.2,29.81,NNW,332,0.0,3.0,99,0.00,,,0.01,633,Wunderground v.1.15,2013-06-28 14:24:00,
2013-06-28 10:29:00,73.5,73.2,29.81,NNW,342,0.0,3.0,99,0.00,,,0.01,561,Wunderground v.1.15,2013-06-28 14:29:00,
2013-06-28 10:34:00,73.9,73.3,29.81,NNW,342,0.0,2.0,98,0.00,,,0.01,582,Wunderground v.1.15,2013-06-28 14:34:00,
2013-06-28 10:40:00,74.5,73.9,29.81,NNW,341,0.0,3.0,98,0.00,,,0.01,643,Wunderground v.1.15,2013-06-28 14:40:00,
2013-06-28 10:45:00,75.2,74.3,29.80,SW,217,0.0,3.0,97,0.00,,,0.01,645,Wunderground v.1.15,2013-06-28 14:45:00,
2013-06-28 10:50:00,76.0,73.8,29.80,SSE,159,0.0,1.0,93,0.00,,,0.01,589,Wunderground v.1.15,2013-06-28 14:50:00,
2013-06-28 10:55:00,77.1,73.6,29.81,West,262,4.0,6.0,89,0.00,,,0.01,661,Wunderground v.1.15,2013-06-28 14:55:00,
2013-06-28 11:00:00,77.9,72.7,29.81,SSW,207,3.0,3.0,84,0.00,,,0.01,666,Wunderground v.1.15,2013-06-28 15:00:00,
2013-06-28 11:05:00,78.9,72.2,29.81,SE,140,0.0,4.0,80,0.00,,,0.01,698,Wunderground v.1.15,2013-06-28 15:05:00,
2013-06-28 11:10:00,80.2,73.8,29.80,South,170,0.0,1.0,81,0.00,,,0.01,596,Wunderground v.1.15,2013-06-28 15:10:00,
2013-06-28 11:15:00,80.6,71.9,29.80,SSW,198,0.0,5.0,75,0.00,,,0.01,612,Wunderground v.1.15,2013-06-28 15:15:00,
2013-06-28 11:20:00,81.0,71.9,29.80,WNW,286,0.0,2.0,74,0.00,,,0.01,636,Wunderground v.1.15,2013-06-28 15:20:00,
2013-06-28 11:25:00,81.5,73.6,29.80,WNW,295,3.0,5.0,77,0.00,,,0.01,742,Wunderground v.1.15,2013-06-28 15:25:00,
2013-06-28 11:30:00,81.6,72.1,29.80,NW,308,6.0,8.0,73,0.00,,,0.01,766,Wunderground v.1.15,2013-06-28 15:30:00,
2013-06-28 11:35:00,81.7,71.8,29.80,NW,321,1.0,8.0,72,0.00,,,0.01,693,Wunderground v.1.15,2013-06-28 15:35:00,
2013-06-28 11:40:00,82.1,72.2,29.80,West,281,0.0,2.0,72,0.00,,,0.01,513,Wunderground v.1.15,2013-06-28 15:40:00,
2013-06-28 11:45:00,82.3,72.4,29.80,NW,305,0.0,6.0,72,0.00,,,0.01,835,Wunderground v.1.15,2013-06-28 15:45:00,
2013-06-28 11:50:00,82.6,71.8,29.80,WSW,240,0.0,2.0,70,0.00,,,0.01,889,Wunderground v.1.15,2013-06-28 15:50:00,
2013-06-28 11:55:00,83.0,72.6,29.80,NW,312,0.0,5.0,71,0.00,,,0.01,816,Wunderground v.1.15,2013-06-28 15:55:00,
2013-06-28 12:00:00,83.3,71.2,29.80,West,268,4.0,5.0,67,0.00,,,0.01,598,Wunderground v.1.15,2013-06-28 16:00:00,
2013-06-28 12:05:00,83.3,70.8,29.80,WSW,245,2.0,7.0,66,0.00,,,0.01,598,Wunderground v.1.15,2013-06-28 16:05:00,
2013-06-28 12:10:00,83.5,70.9,29.80,WNW,290,3.0,3.0,66,0.00,,,0.01,870,Wunderground v.1.15,2013-06-28 16:10:00,
2013-06-28 12:15:00,83.8,70.8,29.80,WNW,293,3.0,9.0,65,0.00,,,0.01,858,Wunderground v.1.15,2013-06-28 16:15:00,
2013-06-28 12:20:00,83.9,69.5,29.80,West,275,6.0,6.0,62,0.00,,,0.01,680,Wunderground v.1.15,2013-06-28 16:20:00,
2013-06-28 12:25:00,84.0,70.5,29.80,NW,304,0.0,7.0,64,0.00,,,0.01,803,Wunderground v.1.15,2013-06-28 16:25:00,
2013-06-28 12:30:00,84.4,72.2,29.79,NW,319,1.0,3.0,67,0.00,,,0.01,851,Wunderground v.1.15,2013-06-28 16:30:00,
2013-06-28 12:35:00,85.0,71.5,29.79,WNW,299,2.0,6.0,64,0.00,,,0.01,874,Wunderground v.1.15,2013-06-28 16:35:00,
2013-06-28 12:40:00,85.7,71.7,29.79,SW,227,2.0,4.0,63,0.00,,,0.01,914,Wunderground v.1.15,2013-06-28 16:40:00,
2013-06-28 12:45:00,86.0,70.5,29.79,WNW,300,5.0,6.0,60,0.00,,,0.01,884,Wunderground v.1.15,2013-06-28 16:45:00,
2013-06-28 12:51:00,85.9,70.9,29.78,West,278,0.0,5.0,61,0.00,,,0.01,907,Wunderground v.1.15,2013-06-28 16:51:00,
2013-06-28 12:56:00,86.0,70.5,29.78,WNW,293,3.0,9.0,60,0.00,,,0.01,853,Wunderground v.1.15,2013-06-28 16:56:00,
2013-06-28 13:01:00,86.0,69.5,29.78,NW,324,3.0,5.0,58,0.00,,,0.01,856,Wunderground v.1.15,2013-06-28 17:01:00,
2013-06-28 13:06:00,86.1,67.5,29.77,NW,308,6.0,10.0,54,0.00,,,0.01,896,Wunderground v.1.15,2013-06-28 17:06:00,
2013-06-28 13:11:00,86.1,68.6,29.77,WNW,303,3.0,8.0,56,0.00,,,0.01,860,Wunderground v.1.15,2013-06-28 17:11:00,
2013-06-28 13:16:00,86.4,69.4,29.77,NW,322,6.0,9.0,57,0.00,,,0.01,784,Wunderground v.1.15,2013-06-28 17:16:00,
2013-06-28 13:21:00,86.3,68.2,29.77,West,266,2.0,6.0,55,0.00,,,0.01,867,Wunderground v.1.15,2013-06-28 17:21:00,
2013-06-28 13:26:00,86.5,68.4,29.76,NW,322,8.0,8.0,55,0.00,,,0.01,874,Wunderground v.1.15,2013-06-28 17:26:00,
2013-06-28 13:31:00,86.7,68.1,29.76,West,271,4.0,6.0,54,0.00,,,0.01,766,Wunderground v.1.15,2013-06-28 17:31:00,
2013-06-28 13:36:00,86.6,68.5,29.76,West,278,6.0,10.0,55,0.00,,,0.01,826,Wunderground v.1.15,2013-06-28 17:36:00,
2013-06-28 13:41:00,86.5,67.9,29.76,WNW,294,3.0,6.0,54,0.00,,,0.01,696,Wunderground v.1.15,2013-06-28 17:41:00,
2013-06-28 13:46:00,86.6,70.1,29.76,WNW,298,7.0,8.0,58,0.00,,,0.01,805,Wunderground v.1.15,2013-06-28 17:46:00,
2013-06-28 13:51:00,86.8,70.2,29.75,North,355,11.0,11.0,58,0.00,,,0.01,854,Wunderground v.1.15,2013-06-28 17:51:00,
2013-06-28 13:56:00,86.9,68.3,29.75,WNW,286,4.0,11.0,54,0.00,,,0.01,911,Wunderground v.1.15,2013-06-28 17:56:00,
2013-06-28 14:01:00,87.1,67.9,29.75,WNW,292,0.0,9.0,53,0.00,,,0.01,933,Wunderground v.1.15,2013-06-28 18:01:00,
2013-06-28 14:06:00,87.2,66.9,29.75,NNW,329,6.0,13.0,51,0.00,,,0.01,840,Wunderground v.1.15,2013-06-28 18:06:00,
2013-06-28 14:11:00,87.4,68.7,29.74,NW,315,10.0,10.0,54,0.00,,,0.01,940,Wunderground v.1.15,2013-06-28 18:11:00,
2013-06-28 14:16:00,87.6,68.4,29.73,WNW,292,4.0,10.0,53,0.00,,,0.01,882,Wunderground v.1.15,2013-06-28 18:16:00,
2013-06-28 14:21:00,87.9,68.1,29.73,WNW,294,2.0,7.0,52,0.00,,,0.01,912,Wunderground v.1.15,2013-06-28 18:21:00,
2013-06-28 14:26:00,88.2,68.9,29.73,West,259,2.0,10.0,53,0.00,,,0.01,902,Wunderground v.1.15,2013-06-28 18:26:00,
2013-06-28 14:31:00,88.3,67.3,29.72,NW,306,7.0,7.0,50,0.00,,,0.01,905,Wunderground v.1.15,2013-06-28 18:31:00,
2013-06-28 14:36:00,88.4,68.0,29.72,WNW,301,5.0,12.0,51,0.00,,,0.01,930,Wunderground v.1.15,2013-06-28 18:36:00,
2013-06-28 14:41:00,88.4,66.8,29.72,NNW,327,5.0,13.0,49,0.00,,,0.01,684,Wunderground v.1.15,2013-06-28 18:41:00,
2013-06-28 14:46:00,88.2,67.2,29.72,WNW,302,5.0,13.0,50,0.00,,,0.01,663,Wunderground v.1.15,2013-06-28 18:46:00,
2013-06-28 14:51:00,88.0,69.3,29.71,NNW,344,9.0,12.0,54,0.00,,,0.01,863,Wunderground v.1.15,2013-06-28 18:51:00,
2013-06-28 14:56:00,88.0,68.7,29.71,NW,313,4.0,12.0,53,0.00,,,0.01,933,Wunderground v.1.15,2013-06-28 18:56:00,
2013-06-28 15:01:00,88.2,70.0,29.70,WNW,300,3.0,5.0,55,0.00,,,0.01,919,Wunderground v.1.15,2013-06-28 19:01:00,
2013-06-28 15:06:00,88.3,68.4,29.70,NW,304,3.0,9.0,52,0.00,,,0.01,865,Wunderground v.1.15,2013-06-28 19:06:00,
2013-06-28 15:11:00,88.4,69.6,29.70,NNW,335,4.0,9.0,54,0.00,,,0.01,851,Wunderground v.1.15,2013-06-28 19:11:00,
2013-06-28 15:17:00,88.2,70.0,29.69,NW,321,7.0,13.0,55,0.00,,,0.01,879,Wunderground v.1.15,2013-06-28 19:17:00,
2013-06-28 15:22:00,88.1,68.8,29.69,West,271,7.0,12.0,53,0.00,,,0.01,568,Wunderground v.1.15,2013-06-28 19:22:00,
2013-06-28 15:27:00,87.6,68.9,29.69,West,281,2.0,12.0,54,0.00,,,0.01,327,Wunderground v.1.15,2013-06-28 19:27:00,
2013-06-28 15:32:00,87.3,69.2,29.69,NW,308,1.0,6.0,55,0.00,,,0.01,255,Wunderground v.1.15,2013-06-28 19:32:00,
2013-06-28 15:37:00,86.9,68.8,29.69,NW,314,1.0,6.0,55,0.00,,,0.01,236,Wunderground v.1.15,2013-06-28 19:37:00,
2013-06-28 15:42:00,86.5,70.5,29.69,WNW,289,0.0,3.0,59,0.00,,,0.01,276,Wunderground v.1.15,2013-06-28 19:42:00,
2013-06-28 15:47:00,86.3,70.8,29.69,NW,311,4.0,5.0,60,0.00,,,0.01,262,Wunderground v.1.15,2013-06-28 19:47:00,
2013-06-28 15:52:00,85.9,70.9,29.69,WNW,296,1.0,5.0,61,0.00,,,0.01,229,Wunderground v.1.15,2013-06-28 19:52:00,
2013-06-28 15:57:00,85.7,71.2,29.69,West,265,0.0,5.0,62,0.00,,,0.01,202,Wunderground v.1.15,2013-06-28 19:57:00,
2013-06-28 16:02:00,85.5,71.9,29.69,West,265,0.0,1.0,64,0.00,,,0.01,183,Wunderground v.1.15,2013-06-28 20:02:00,
2013-06-28 16:07:00,85.2,71.2,29.68,West,266,0.0,4.0,63,0.00,,,0.01,183,Wunderground v.1.15,2013-06-28 20:07:00,
2013-06-28 16:12:00,85.1,72.0,29.67,West,266,0.0,1.0,65,0.00,,,0.01,185,Wunderground v.1.15,2013-06-28 20:12:00,
2013-06-28 16:17:00,85.1,72.5,29.67,West,266,0.0,1.0,66,0.00,,,0.01,185,Wunderground v.1.15,2013-06-28 20:17:00,
2013-06-28 16:22:00,85.1,73.3,29.67,West,266,0.0,0.0,68,0.00,,,0.01,163,Wunderground v.1.15,2013-06-28 20:22:00,
2013-06-28 16:27:00,85.0,73.3,29.67,West,266,0.0,0.0,68,0.00,,,0.01,128,Wunderground v.1.15,2013-06-28 20:27:00,
2013-06-28 16:32:00,84.9,74.0,29.67,West,266,0.0,0.0,70,0.00,,,0.01,123,Wunderground v.1.15,2013-06-28 20:32:00,
2013-06-28 16:37:00,84.7,73.0,29.67,West,266,0.0,1.0,68,0.00,,,0.01,77,Wunderground v.1.15,2013-06-28 20:37:00,
2013-06-28 16:42:00,83.9,73.1,29.69,NW,311,16.0,16.0,70,0.00,,,0.01,32,Wunderground v.1.15,2013-06-28 20:42:00,
2013-06-28 16:47:00,80.8,69.2,29.70,NNW,338,11.0,18.0,68,0.00,,,0.01,32,Wunderground v.1.15,2013-06-28 20:47:00,
2013-06-28 16:52:00,78.2,68.0,29.70,NNW,329,5.0,12.0,71,0.00,,,0.01,39,Wunderground v.1.15,2013-06-28 20:52:00,
2013-06-28 16:57:00,76.4,67.1,29.71,NNE,20,12.0,22.0,73,0.00,,,0.01,33,Wunderground v.1.15,2013-06-28 20:57:00,
2013-06-28 17:02:00,73.5,66.9,29.71,NNW,346,22.0,27.0,80,0.43,,,0.06,67,Wunderground v.1.15,2013-06-28 21:02:00,
2013-06-28 22:12:00,71.7,70.2,29.72,SSE,165,0.0,0.0,95,0.00,,,0.44,0,Wunderground v.1.15,2013-06-29 02:12:00,
2013-06-28 22:17:00,71.6,70.1,29.72,SSE,165,0.0,0.0,95,0.00,,,0.44,0,Wunderground v.1.15,2013-06-29 02:17:00,
2013-06-28 22:22:00,71.5,70.0,29.72,SSE,165,0.0,0.0,95,0.00,,,0.44,0,Wunderground v.1.15,2013-06-29 02:22:00,
2013-06-28 22:28:00,71.3,69.8,29.72,SSE,165,0.0,0.0,95,0.00,,,0.44,0,Wunderground v.1.15,2013-06-29 02:28:00,
2013-06-28 22:33:00,71.1,69.6,29.72,SSW,196,0.0,1.0,95,0.00,,,0.44,0,Wunderground v.1.15,2013-06-29 02:33:00,
2013-06-28 22:38:00,71.0,69.5,29.72,SSW,196,0.0,1.0,95,0.00,,,0.44,0,Wunderground v.1.15,2013-06-29 02:38:00,
2013-06-28 22:43:00,70.8,69.3,29.73,SSW,196,0.0,1.0,95,0.00,,,0.44,0,Wunderground v.1.15,2013-06-29 02:43:00,
2013-06-28 22:48:00,70.7,69.2,29.73,SSW,196,0.0,1.0,95,0.00,,,0.44,0,Wunderground v.1.15,2013-06-29 02:48:00,
2013-06-28 22:53:00,70.6,69.1,29.73,SSW,196,0.0,0.0,95,0.00,,,0.44,0,Wunderground v.1.15,2013-06-29 02:53:00,
2013-06-28 22:58:00,70.5,69.0,29.73,SSW,196,0.0,0.0,95,0.00,,,0.44,0,Wunderground v.1.15,2013-06-29 02:58:00,
2013-06-28 23:03:00,70.4,68.9,29.73,SSW,196,0.0,0.0,95,0.00,,,0.44,0,Wunderground v.1.15,2013-06-29 03:03:00,
2013-06-28 23:08:00,70.3,68.8,29.73,SSW,196,0.0,0.0,95,0.00,,,0.44,0,Wunderground v.1.15,2013-06-29 03:08:00,
2013-06-28 23:13:00,70.2,68.7,29.73,SSW,196,0.0,0.0,95,0.00,,,0.44,0,Wunderground v.1.15,2013-06-29 03:13:00,
2013-06-28 23:18:00,70.1,68.6,29.73,SSW,196,0.0,0.0,95,0.00,,,0.44,0,Wunderground v.1.15,2013-06-29 03:18:00,
2013-06-28 23:23:00,70.0,68.5,29.74,SW,235,2.0,2.0,95,0.00,,,0.44,0,Wunderground v.1.15,2013-06-29 03:23:00,
2013-06-28 23:28:00,69.8,68.3,29.73,WNW,294,0.0,4.0,95,0.00,,,0.44,0,Wunderground v.1.15,2013-06-29 03:28:00,
2013-06-28 23:34:00,69.7,68.5,29.73,WNW,294,0.0,0.0,96,0.00,,,0.44,0,Wunderground v.1.15,2013-06-29 03:34:00,
2013-06-28 23:39:00,69.5,68.3,29.73,WNW,294,0.0,1.0,96,0.00,,,0.44,0,Wunderground v.1.15,2013-06-29 03:39:00,
2013-06-28 23:44:00,69.4,68.2,29.72,WNW,294,0.0,1.0,96,0.00,,,0.44,0,Wunderground v.1.15,2013-06-29 03:44:00,
2013-06-28 23:49:00,69.3,68.1,29.72,WNW,294,0.0,1.0,96,0.00,,,0.44,0,Wunderground v.1.15,2013-06-29 03:49:00,
2013-06-28 23:54:00,69.2,68.0,29.71,WNW,294,0.0,0.0,96,0.00,,,0.44,0,Wunderground v.1.15,2013-06-29 03:54:00,
2013-06-28 23:59:00,69.0,67.8,29.72,WNW,294,0.0,0.0,96,0.00,,,0.45,0,Wunderground v.1.15,2013-06-29 03:59:00,